sensor_id;sensor_type;location;lat;lon;timestamp;P1;durP1;ratioP1;P2;durP2;ratioP2
56102;SDS011;41970;48.774;9.280;2024-03-02T00:00:07;13.25;;;10.60;;
56102;SDS011;41970;48.774;9.280;2024-03-02T00:02:41;16.37;;;11.30;;
56102;SDS011;41970;48.774;9.280;2024-03-02T00:05:08;16.58;;;11.45;;
56102;SDS011;41970;48.774;9.280;2024-03-02T00:07:37;15.53;;;11.37;;
56102;SDS011;41970;48.774;9.280;2024-03-02T00:10:07;12.80;;;10.70;;
56102;SDS011;41970;48.774;9.280;2024-03-02T00:12:37;15.03;;;11.17;;
56102;SDS011;41970;48.774;9.280;2024-03-02T00:15:16;14.63;;;11.67;;
56102;SDS011;41970;48.774;9.280;2024-03-02T00:17:46;15.17;;;10.57;;
56102;SDS011;41970;48.774;9.280;2024-03-02T00:20:18;14.70;;;12.00;;
56102;SDS011;41970;48.774;9.280;2024-03-02T00:22:48;13.27;;;11.00;;
56102;SDS011;41970;48.774;9.280;2024-03-02T00:25:14;11.87;;;10.60;;
56102;SDS011;41970;48.774;9.280;2024-03-02T00:27:39;15.07;;;11.20;;
56102;SDS011;41970;48.774;9.280;2024-03-02T00:32:52;15.13;;;10.73;;
56102;SDS011;41970;48.774;9.280;2024-03-02T00:35:18;15.07;;;11.83;;
56102;SDS011;41970;48.774;9.280;2024-03-02T00:37:47;14.97;;;12.67;;
56102;SDS011;41970;48.774;9.280;2024-03-02T00:40:13;15.83;;;13.07;;
56102;SDS011;41970;48.774;9.280;2024-03-02T00:42:39;14.00;;;12.07;;
56102;SDS011;41970;48.774;9.280;2024-03-02T00:45:07;13.60;;;11.30;;
56102;SDS011;41970;48.774;9.280;2024-03-02T00:47:37;15.13;;;11.87;;
56102;SDS011;41970;48.774;9.280;2024-03-02T00:50:04;14.50;;;10.93;;
56102;SDS011;41970;48.774;9.280;2024-03-02T00:52:31;15.57;;;11.97;;
56102;SDS011;41970;48.774;9.280;2024-03-02T00:54:58;12.40;;;10.30;;
56102;SDS011;41970;48.774;9.280;2024-03-02T00:57:24;13.73;;;11.97;;
56102;SDS011;41970;48.774;9.280;2024-03-02T00:59:51;16.40;;;12.00;;
56102;SDS011;41970;48.774;9.280;2024-03-02T01:02:17;14.27;;;12.27;;
56102;SDS011;41970;48.774;9.280;2024-03-02T01:04:45;14.98;;;11.90;;
56102;SDS011;41970;48.774;9.280;2024-03-02T01:07:11;15.10;;;13.00;;
56102;SDS011;41970;48.774;9.280;2024-03-02T01:09:36;17.50;;;13.30;;
56102;SDS011;41970;48.774;9.280;2024-03-02T01:12:02;15.33;;;12.90;;
56102;SDS011;41970;48.774;9.280;2024-03-02T01:14:28;15.20;;;11.60;;
56102;SDS011;41970;48.774;9.280;2024-03-02T01:16:54;18.07;;;13.53;;
56102;SDS011;41970;48.774;9.280;2024-03-02T01:19:20;14.20;;;11.20;;
56102;SDS011;41970;48.774;9.280;2024-03-02T01:21:46;16.83;;;11.98;;
56102;SDS011;41970;48.774;9.280;2024-03-02T01:24:11;18.00;;;12.37;;
56102;SDS011;41970;48.774;9.280;2024-03-02T01:26:38;16.80;;;11.77;;
56102;SDS011;41970;48.774;9.280;2024-03-02T01:29:04;17.17;;;14.33;;
56102;SDS011;41970;48.774;9.280;2024-03-02T01:31:29;16.13;;;11.73;;
56102;SDS011;41970;48.774;9.280;2024-03-02T01:33:55;17.80;;;12.77;;
56102;SDS011;41970;48.774;9.280;2024-03-02T01:36:21;17.63;;;12.30;;
56102;SDS011;41970;48.774;9.280;2024-03-02T01:38:46;17.20;;;13.13;;
56102;SDS011;41970;48.774;9.280;2024-03-02T01:41:12;16.20;;;12.50;;
56102;SDS011;41970;48.774;9.280;2024-03-02T01:43:38;16.23;;;11.30;;
56102;SDS011;41970;48.774;9.280;2024-03-02T01:46:04;13.57;;;10.03;;
56102;SDS011;41970;48.774;9.280;2024-03-02T01:48:29;15.73;;;12.07;;
56102;SDS011;41970;48.774;9.280;2024-03-02T01:50:55;16.00;;;11.03;;
56102;SDS011;41970;48.774;9.280;2024-03-02T01:53:21;15.50;;;10.97;;
56102;SDS011;41970;48.774;9.280;2024-03-02T01:55:47;19.60;;;13.33;;
56102;SDS011;41970;48.774;9.280;2024-03-02T01:58:13;15.13;;;12.73;;
56102;SDS011;41970;48.774;9.280;2024-03-02T02:00:39;15.48;;;12.15;;
56102;SDS011;41970;48.774;9.280;2024-03-02T02:03:05;16.97;;;12.40;;
56102;SDS011;41970;48.774;9.280;2024-03-02T02:05:31;14.93;;;11.60;;
56102;SDS011;41970;48.774;9.280;2024-03-02T02:07:58;14.70;;;11.27;;
56102;SDS011;41970;48.774;9.280;2024-03-02T02:10:24;15.07;;;11.33;;
56102;SDS011;41970;48.774;9.280;2024-03-02T02:12:50;15.63;;;12.03;;
56102;SDS011;41970;48.774;9.280;2024-03-02T02:15:22;16.00;;;11.07;;
56102;SDS011;41970;48.774;9.280;2024-03-02T02:17:52;15.93;;;12.05;;
56102;SDS011;41970;48.774;9.280;2024-03-02T02:20:19;15.00;;;11.70;;
56102;SDS011;41970;48.774;9.280;2024-03-02T02:23:01;17.90;;;12.57;;
56102;SDS011;41970;48.774;9.280;2024-03-02T02:25:29;14.52;;;11.70;;
56102;SDS011;41970;48.774;9.280;2024-03-02T02:27:55;17.55;;;13.48;;
56102;SDS011;41970;48.774;9.280;2024-03-02T02:30:24;16.35;;;12.00;;
56102;SDS011;41970;48.774;9.280;2024-03-02T02:32:51;12.00;;;10.15;;
56102;SDS011;41970;48.774;9.280;2024-03-02T02:35:17;14.67;;;11.57;;
56102;SDS011;41970;48.774;9.280;2024-03-02T02:37:44;14.10;;;10.50;;
56102;SDS011;41970;48.774;9.280;2024-03-02T02:40:11;13.85;;;9.90;;
56102;SDS011;41970;48.774;9.280;2024-03-02T02:42:38;13.57;;;10.85;;
56102;SDS011;41970;48.774;9.280;2024-03-02T02:45:04;13.85;;;11.05;;
56102;SDS011;41970;48.774;9.280;2024-03-02T02:47:33;18.80;;;12.77;;
56102;SDS011;41970;48.774;9.280;2024-03-02T02:50:02;13.35;;;10.95;;
56102;SDS011;41970;48.774;9.280;2024-03-02T02:52:32;15.68;;;12.25;;
56102;SDS011;41970;48.774;9.280;2024-03-02T02:55:00;13.32;;;11.20;;
56102;SDS011;41970;48.774;9.280;2024-03-02T02:57:28;19.33;;;13.40;;
56102;SDS011;41970;48.774;9.280;2024-03-02T02:59:55;16.73;;;12.32;;
56102;SDS011;41970;48.774;9.280;2024-03-02T03:02:21;16.90;;;11.13;;
56102;SDS011;41970;48.774;9.280;2024-03-02T03:04:47;16.37;;;11.50;;
56102;SDS011;41970;48.774;9.280;2024-03-02T03:07:13;17.37;;;12.43;;
56102;SDS011;41970;48.774;9.280;2024-03-02T03:09:39;16.60;;;11.07;;
56102;SDS011;41970;48.774;9.280;2024-03-02T03:12:04;17.73;;;12.20;;
56102;SDS011;41970;48.774;9.280;2024-03-02T03:14:30;14.20;;;11.17;;
56102;SDS011;41970;48.774;9.280;2024-03-02T03:16:56;19.13;;;12.17;;
56102;SDS011;41970;48.774;9.280;2024-03-02T03:19:22;16.20;;;11.23;;
56102;SDS011;41970;48.774;9.280;2024-03-02T03:21:47;14.60;;;11.63;;
56102;SDS011;41970;48.774;9.280;2024-03-02T03:24:13;16.47;;;11.63;;
56102;SDS011;41970;48.774;9.280;2024-03-02T03:26:39;13.77;;;10.30;;
56102;SDS011;41970;48.774;9.280;2024-03-02T03:29:04;15.93;;;11.47;;
56102;SDS011;41970;48.774;9.280;2024-03-02T03:31:31;15.25;;;11.48;;
56102;SDS011;41970;48.774;9.280;2024-03-02T03:33:57;13.80;;;11.83;;
56102;SDS011;41970;48.774;9.280;2024-03-02T03:36:23;17.00;;;12.15;;
56102;SDS011;41970;48.774;9.280;2024-03-02T03:38:49;18.87;;;12.33;;
56102;SDS011;41970;48.774;9.280;2024-03-02T03:41:15;14.20;;;11.20;;
56102;SDS011;41970;48.774;9.280;2024-03-02T03:43:40;15.93;;;10.77;;
56102;SDS011;41970;48.774;9.280;2024-03-02T03:46:06;16.10;;;10.53;;
56102;SDS011;41970;48.774;9.280;2024-03-02T03:48:32;13.87;;;11.13;;
56102;SDS011;41970;48.774;9.280;2024-03-02T03:50:58;15.87;;;11.70;;
56102;SDS011;41970;48.774;9.280;2024-03-02T03:53:24;14.07;;;10.27;;
56102;SDS011;41970;48.774;9.280;2024-03-02T03:55:49;14.93;;;10.53;;
56102;SDS011;41970;48.774;9.280;2024-03-02T03:58:15;18.40;;;11.10;;
56102;SDS011;41970;48.774;9.280;2024-03-02T04:00:42;15.88;;;12.15;;
56102;SDS011;41970;48.774;9.280;2024-03-02T04:03:08;17.00;;;11.80;;
56102;SDS011;41970;48.774;9.280;2024-03-02T04:05:34;19.37;;;10.40;;
56102;SDS011;41970;48.774;9.280;2024-03-02T04:07:59;16.87;;;10.87;;
56102;SDS011;41970;48.774;9.280;2024-03-02T04:10:26;13.85;;;10.65;;
56102;SDS011;41970;48.774;9.280;2024-03-02T04:12:51;14.90;;;11.80;;
56102;SDS011;41970;48.774;9.280;2024-03-02T04:15:17;18.90;;;12.30;;
56102;SDS011;41970;48.774;9.280;2024-03-02T04:17:43;15.88;;;11.27;;
56102;SDS011;41970;48.774;9.280;2024-03-02T04:20:09;14.50;;;10.97;;
56102;SDS011;41970;48.774;9.280;2024-03-02T04:22:37;14.27;;;11.25;;
56102;SDS011;41970;48.774;9.280;2024-03-02T04:25:03;15.80;;;10.93;;
56102;SDS011;41970;48.774;9.280;2024-03-02T04:27:32;16.75;;;11.93;;
56102;SDS011;41970;48.774;9.280;2024-03-02T04:29:58;14.38;;;11.48;;
56102;SDS011;41970;48.774;9.280;2024-03-02T04:32:25;18.13;;;12.38;;
56102;SDS011;41970;48.774;9.280;2024-03-02T04:34:52;19.27;;;13.18;;
56102;SDS011;41970;48.774;9.280;2024-03-02T04:37:18;15.15;;;11.05;;
56102;SDS011;41970;48.774;9.280;2024-03-02T04:39:44;19.50;;;11.80;;
56102;SDS011;41970;48.774;9.280;2024-03-02T04:42:10;17.02;;;12.32;;
56102;SDS011;41970;48.774;9.280;2024-03-02T04:44:36;13.07;;;9.90;;
56102;SDS011;41970;48.774;9.280;2024-03-02T04:47:03;17.77;;;11.85;;
56102;SDS011;41970;48.774;9.280;2024-03-02T04:49:29;11.75;;;9.82;;
56102;SDS011;41970;48.774;9.280;2024-03-02T04:51:55;12.40;;;9.60;;
56102;SDS011;41970;48.774;9.280;2024-03-02T04:54:24;16.08;;;11.70;;
56102;SDS011;41970;48.774;9.280;2024-03-02T04:56:49;14.07;;;10.80;;
56102;SDS011;41970;48.774;9.280;2024-03-02T04:59:16;16.53;;;11.90;;
56102;SDS011;41970;48.774;9.280;2024-03-02T05:01:43;16.67;;;11.85;;
56102;SDS011;41970;48.774;9.280;2024-03-02T05:04:09;13.88;;;10.68;;
56102;SDS011;41970;48.774;9.280;2024-03-02T05:06:39;18.30;;;12.05;;
56102;SDS011;41970;48.774;9.280;2024-03-02T05:09:06;16.90;;;12.38;;
56102;SDS011;41970;48.774;9.280;2024-03-02T05:11:32;18.60;;;11.90;;
56102;SDS011;41970;48.774;9.280;2024-03-02T05:14:07;17.85;;;11.52;;
56102;SDS011;41970;48.774;9.280;2024-03-02T05:16:33;19.02;;;12.52;;
56102;SDS011;41970;48.774;9.280;2024-03-02T05:19:03;17.33;;;12.32;;
56102;SDS011;41970;48.774;9.280;2024-03-02T05:21:32;21.15;;;13.63;;
56102;SDS011;41970;48.774;9.280;2024-03-02T05:23:58;18.00;;;11.93;;
56102;SDS011;41970;48.774;9.280;2024-03-02T05:26:24;19.23;;;11.63;;
56102;SDS011;41970;48.774;9.280;2024-03-02T05:28:50;17.30;;;12.17;;
56102;SDS011;41970;48.774;9.280;2024-03-02T05:31:16;18.97;;;12.50;;
56102;SDS011;41970;48.774;9.280;2024-03-02T05:33:42;17.83;;;11.82;;
56102;SDS011;41970;48.774;9.280;2024-03-02T05:36:09;16.80;;;11.88;;
56102;SDS011;41970;48.774;9.280;2024-03-02T05:38:34;13.93;;;10.57;;
56102;SDS011;41970;48.774;9.280;2024-03-02T05:41:03;16.57;;;11.00;;
56102;SDS011;41970;48.774;9.280;2024-03-02T05:43:29;14.68;;;9.85;;
56102;SDS011;41970;48.774;9.280;2024-03-02T05:45:55;14.60;;;10.60;;
56102;SDS011;41970;48.774;9.280;2024-03-02T05:48:21;16.87;;;12.40;;
56102;SDS011;41970;48.774;9.280;2024-03-02T05:50:47;16.80;;;11.53;;
56102;SDS011;41970;48.774;9.280;2024-03-02T05:53:12;16.20;;;11.50;;
56102;SDS011;41970;48.774;9.280;2024-03-02T05:55:38;17.33;;;10.53;;
56102;SDS011;41970;48.774;9.280;2024-03-02T05:58:04;17.17;;;12.07;;
56102;SDS011;41970;48.774;9.280;2024-03-02T06:00:48;14.40;;;10.73;;
56102;SDS011;41970;48.774;9.280;2024-03-02T06:03:14;19.70;;;12.97;;
56102;SDS011;41970;48.774;9.280;2024-03-02T06:05:39;14.53;;;10.93;;
56102;SDS011;41970;48.774;9.280;2024-03-02T06:08:06;16.65;;;12.07;;
56102;SDS011;41970;48.774;9.280;2024-03-02T06:10:32;19.42;;;12.60;;
56102;SDS011;41970;48.774;9.280;2024-03-02T06:12:58;17.23;;;11.80;;
56102;SDS011;41970;48.774;9.280;2024-03-02T06:15:24;15.25;;;11.07;;
56102;SDS011;41970;48.774;9.280;2024-03-02T06:17:50;16.47;;;11.93;;
56102;SDS011;41970;48.774;9.280;2024-03-02T06:20:16;16.80;;;11.10;;
56102;SDS011;41970;48.774;9.280;2024-03-02T06:22:41;16.10;;;11.33;;
56102;SDS011;41970;48.774;9.280;2024-03-02T06:25:07;17.53;;;11.90;;
56102;SDS011;41970;48.774;9.280;2024-03-02T06:27:33;14.93;;;11.40;;
56102;SDS011;41970;48.774;9.280;2024-03-02T06:29:59;17.03;;;12.80;;
56102;SDS011;41970;48.774;9.280;2024-03-02T06:32:24;17.90;;;13.27;;
56102;SDS011;41970;48.774;9.280;2024-03-02T06:34:50;17.47;;;12.67;;
56102;SDS011;41970;48.774;9.280;2024-03-02T06:37:16;15.70;;;12.07;;
56102;SDS011;41970;48.774;9.280;2024-03-02T06:39:42;16.60;;;12.47;;
56102;SDS011;41970;48.774;9.280;2024-03-02T06:42:08;18.60;;;12.50;;
56102;SDS011;41970;48.774;9.280;2024-03-02T06:44:34;16.17;;;12.07;;
56102;SDS011;41970;48.774;9.280;2024-03-02T06:47:00;15.40;;;11.53;;
56102;SDS011;41970;48.774;9.280;2024-03-02T06:49:25;16.27;;;12.47;;
56102;SDS011;41970;48.774;9.280;2024-03-02T06:51:51;19.87;;;11.17;;
56102;SDS011;41970;48.774;9.280;2024-03-02T06:54:17;17.27;;;12.60;;
56102;SDS011;41970;48.774;9.280;2024-03-02T06:56:42;29.73;;;16.37;;
56102;SDS011;41970;48.774;9.280;2024-03-02T06:59:08;23.07;;;15.27;;
56102;SDS011;41970;48.774;9.280;2024-03-02T07:01:34;17.13;;;12.90;;
56102;SDS011;41970;48.774;9.280;2024-03-02T07:04:00;21.30;;;13.47;;
56102;SDS011;41970;48.774;9.280;2024-03-02T07:06:25;20.93;;;13.47;;
56102;SDS011;41970;48.774;9.280;2024-03-02T07:08:51;17.63;;;12.90;;
56102;SDS011;41970;48.774;9.280;2024-03-02T07:11:17;16.13;;;13.27;;
56102;SDS011;41970;48.774;9.280;2024-03-02T07:13:43;21.53;;;14.83;;
56102;SDS011;41970;48.774;9.280;2024-03-02T07:16:08;17.20;;;13.70;;
56102;SDS011;41970;48.774;9.280;2024-03-02T07:18:54;16.75;;;11.85;;
56102;SDS011;41970;48.774;9.280;2024-03-02T07:21:21;18.45;;;13.02;;
56102;SDS011;41970;48.774;9.280;2024-03-02T07:23:47;19.20;;;12.43;;
56102;SDS011;41970;48.774;9.280;2024-03-02T07:26:14;16.98;;;12.98;;
56102;SDS011;41970;48.774;9.280;2024-03-02T07:28:40;19.23;;;13.50;;
56102;SDS011;41970;48.774;9.280;2024-03-02T07:31:06;17.02;;;13.20;;
56102;SDS011;41970;48.774;9.280;2024-03-02T07:33:32;21.07;;;13.90;;
56102;SDS011;41970;48.774;9.280;2024-03-02T07:35:58;18.97;;;12.90;;
56102;SDS011;41970;48.774;9.280;2024-03-02T07:38:25;20.35;;;13.77;;
56102;SDS011;41970;48.774;9.280;2024-03-02T07:40:52;18.45;;;14.50;;
56102;SDS011;41970;48.774;9.280;2024-03-02T07:43:18;19.20;;;14.83;;
56102;SDS011;41970;48.774;9.280;2024-03-02T07:45:45;26.00;;;15.50;;
56102;SDS011;41970;48.774;9.280;2024-03-02T07:48:11;19.67;;;13.98;;
56102;SDS011;41970;48.774;9.280;2024-03-02T07:50:37;21.77;;;13.63;;
56102;SDS011;41970;48.774;9.280;2024-03-02T07:53:04;19.17;;;13.98;;
56102;SDS011;41970;48.774;9.280;2024-03-02T07:55:30;17.85;;;11.65;;
56102;SDS011;41970;48.774;9.280;2024-03-02T07:57:56;26.80;;;16.63;;
56102;SDS011;41970;48.774;9.280;2024-03-02T08:00:23;16.20;;;12.00;;
56102;SDS011;41970;48.774;9.280;2024-03-02T08:02:49;17.67;;;13.32;;
56102;SDS011;41970;48.774;9.280;2024-03-02T08:05:18;18.63;;;14.17;;
56102;SDS011;41970;48.774;9.280;2024-03-02T08:07:45;13.23;;;11.70;;
56102;SDS011;41970;48.774;9.280;2024-03-02T08:10:11;16.87;;;11.40;;
56102;SDS011;41970;48.774;9.280;2024-03-02T08:12:37;19.17;;;12.07;;
56102;SDS011;41970;48.774;9.280;2024-03-02T08:15:04;16.57;;;11.90;;
56102;SDS011;41970;48.774;9.280;2024-03-02T08:17:30;13.10;;;9.80;;
56102;SDS011;41970;48.774;9.280;2024-03-02T08:19:56;15.43;;;11.00;;
56102;SDS011;41970;48.774;9.280;2024-03-02T08:22:23;19.90;;;11.93;;
56102;SDS011;41970;48.774;9.280;2024-03-02T08:24:50;13.77;;;10.27;;
56102;SDS011;41970;48.774;9.280;2024-03-02T08:27:16;15.00;;;11.43;;
56102;SDS011;41970;48.774;9.280;2024-03-02T08:29:42;15.23;;;10.37;;
56102;SDS011;41970;48.774;9.280;2024-03-02T08:32:08;9.90;;;8.10;;
56102;SDS011;41970;48.774;9.280;2024-03-02T08:34:33;10.50;;;7.70;;
56102;SDS011;41970;48.774;9.280;2024-03-02T08:37:09;11.10;;;7.80;;
56102;SDS011;41970;48.774;9.280;2024-03-02T08:39:35;11.87;;;9.03;;
56102;SDS011;41970;48.774;9.280;2024-03-02T08:42:00;8.77;;;7.60;;
56102;SDS011;41970;48.774;9.280;2024-03-02T08:44:26;10.10;;;8.40;;
56102;SDS011;41970;48.774;9.280;2024-03-02T08:46:52;13.10;;;8.57;;
56102;SDS011;41970;48.774;9.280;2024-03-02T08:49:18;8.80;;;7.90;;
56102;SDS011;41970;48.774;9.280;2024-03-02T08:51:43;11.20;;;9.20;;
56102;SDS011;41970;48.774;9.280;2024-03-02T08:54:09;10.30;;;8.20;;
56102;SDS011;41970;48.774;9.280;2024-03-02T08:56:35;9.07;;;7.73;;
56102;SDS011;41970;48.774;9.280;2024-03-02T08:59:01;9.33;;;6.73;;
56102;SDS011;41970;48.774;9.280;2024-03-02T09:01:27;10.03;;;7.17;;
56102;SDS011;41970;48.774;9.280;2024-03-02T09:03:52;6.37;;;5.50;;
56102;SDS011;41970;48.774;9.280;2024-03-02T09:06:18;6.37;;;5.70;;
56102;SDS011;41970;48.774;9.280;2024-03-02T09:08:47;6.80;;;5.30;;
56102;SDS011;41970;48.774;9.280;2024-03-02T09:11:14;6.40;;;5.33;;
56102;SDS011;41970;48.774;9.280;2024-03-02T09:13:40;6.43;;;5.40;;
56102;SDS011;41970;48.774;9.280;2024-03-02T09:16:06;6.00;;;5.30;;
56102;SDS011;41970;48.774;9.280;2024-03-02T09:18:32;6.10;;;5.50;;
56102;SDS011;41970;48.774;9.280;2024-03-02T09:20:58;5.10;;;4.27;;
56102;SDS011;41970;48.774;9.280;2024-03-02T09:23:24;4.60;;;4.17;;
56102;SDS011;41970;48.774;9.280;2024-03-02T09:25:50;7.10;;;5.40;;
56102;SDS011;41970;48.774;9.280;2024-03-02T09:28:16;6.77;;;5.20;;
56102;SDS011;41970;48.774;9.280;2024-03-02T09:30:41;12.33;;;6.50;;
56102;SDS011;41970;48.774;9.280;2024-03-02T09:33:07;8.63;;;6.13;;
56102;SDS011;41970;48.774;9.280;2024-03-02T09:35:33;5.10;;;4.60;;
56102;SDS011;41970;48.774;9.280;2024-03-02T09:37:58;6.67;;;5.60;;
56102;SDS011;41970;48.774;9.280;2024-03-02T09:40:24;5.67;;;5.07;;
56102;SDS011;41970;48.774;9.280;2024-03-02T09:42:50;5.20;;;4.70;;
56102;SDS011;41970;48.774;9.280;2024-03-02T09:45:23;7.57;;;5.50;;
56102;SDS011;41970;48.774;9.280;2024-03-02T09:47:49;5.10;;;4.33;;
56102;SDS011;41970;48.774;9.280;2024-03-02T09:50:15;4.90;;;4.40;;
56102;SDS011;41970;48.774;9.280;2024-03-02T09:52:48;5.97;;;5.23;;
56102;SDS011;41970;48.774;9.280;2024-03-02T09:55:15;6.80;;;4.60;;
56102;SDS011;41970;48.774;9.280;2024-03-02T09:57:42;4.43;;;4.03;;
56102;SDS011;41970;48.774;9.280;2024-03-02T10:00:08;7.50;;;3.80;;
56102;SDS011;41970;48.774;9.280;2024-03-02T10:02:34;5.40;;;4.40;;
56102;SDS011;41970;48.774;9.280;2024-03-02T10:05:00;3.93;;;3.50;;
56102;SDS011;41970;48.774;9.280;2024-03-02T10:07:29;4.17;;;3.40;;
56102;SDS011;41970;48.774;9.280;2024-03-02T10:09:54;3.97;;;3.47;;
56102;SDS011;41970;48.774;9.280;2024-03-02T10:12:20;5.30;;;4.63;;
56102;SDS011;41970;48.774;9.280;2024-03-02T10:14:47;3.70;;;3.10;;
56102;SDS011;41970;48.774;9.280;2024-03-02T10:17:17;4.50;;;3.93;;
56102;SDS011;41970;48.774;9.280;2024-03-02T10:19:43;5.73;;;4.47;;
56102;SDS011;41970;48.774;9.280;2024-03-02T10:22:09;4.07;;;3.57;;
56102;SDS011;41970;48.774;9.280;2024-03-02T10:24:37;4.73;;;4.27;;
56102;SDS011;41970;48.774;9.280;2024-03-02T10:27:07;4.63;;;3.50;;
56102;SDS011;41970;48.774;9.280;2024-03-02T10:29:36;5.50;;;3.73;;
56102;SDS011;41970;48.774;9.280;2024-03-02T10:32:03;4.00;;;3.57;;
56102;SDS011;41970;48.774;9.280;2024-03-02T10:34:31;4.50;;;4.00;;
56102;SDS011;41970;48.774;9.280;2024-03-02T10:36:57;4.43;;;4.03;;
56102;SDS011;41970;48.774;9.280;2024-03-02T10:39:23;4.40;;;4.00;;
56102;SDS011;41970;48.774;9.280;2024-03-02T10:41:49;5.27;;;4.70;;
56102;SDS011;41970;48.774;9.280;2024-03-02T10:44:18;6.20;;;4.97;;
56102;SDS011;41970;48.774;9.280;2024-03-02T10:46:45;5.00;;;4.40;;
56102;SDS011;41970;48.774;9.280;2024-03-02T10:49:12;4.27;;;3.97;;
56102;SDS011;41970;48.774;9.280;2024-03-02T10:51:38;5.00;;;3.60;;
56102;SDS011;41970;48.774;9.280;2024-03-02T10:54:04;5.33;;;4.83;;
56102;SDS011;41970;48.774;9.280;2024-03-02T10:56:31;4.00;;;3.67;;
56102;SDS011;41970;48.774;9.280;2024-03-02T10:59:02;4.97;;;4.13;;
56102;SDS011;41970;48.774;9.280;2024-03-02T11:01:30;7.37;;;5.63;;
56102;SDS011;41970;48.774;9.280;2024-03-02T11:03:58;4.50;;;3.53;;
56102;SDS011;41970;48.774;9.280;2024-03-02T11:06:26;18.17;;;7.37;;
56102;SDS011;41970;48.774;9.280;2024-03-02T11:08:54;4.90;;;4.27;;
56102;SDS011;41970;48.774;9.280;2024-03-02T11:11:27;2.80;;;2.60;;
56102;SDS011;41970;48.774;9.280;2024-03-02T11:13:56;4.97;;;4.37;;
56102;SDS011;41970;48.774;9.280;2024-03-02T11:16:33;3.60;;;2.63;;
56102;SDS011;41970;48.774;9.280;2024-03-02T11:19:07;3.23;;;2.93;;
56102;SDS011;41970;48.774;9.280;2024-03-02T11:21:38;3.77;;;3.27;;
56102;SDS011;41970;48.774;9.280;2024-03-02T11:26:57;3.33;;;2.73;;
56102;SDS011;41970;48.774;9.280;2024-03-02T11:32:22;3.50;;;2.37;;
56102;SDS011;41970;48.774;9.280;2024-03-02T11:34:49;2.73;;;1.90;;
56102;SDS011;41970;48.774;9.280;2024-03-02T11:37:16;2.63;;;2.10;;
56102;SDS011;41970;48.774;9.280;2024-03-02T11:39:46;2.80;;;2.07;;
56102;SDS011;41970;48.774;9.280;2024-03-02T11:42:14;2.10;;;1.80;;
56102;SDS011;41970;48.774;9.280;2024-03-02T11:44:45;2.60;;;1.33;;
56102;SDS011;41970;48.774;9.280;2024-03-02T11:47:13;1.77;;;1.57;;
56102;SDS011;41970;48.774;9.280;2024-03-02T11:49:46;1.33;;;1.13;;
56102;SDS011;41970;48.774;9.280;2024-03-02T11:52:16;1.40;;;1.20;;
56102;SDS011;41970;48.774;9.280;2024-03-02T11:54:46;3.00;;;1.17;;
56102;SDS011;41970;48.774;9.280;2024-03-02T11:57:14;1.20;;;1.00;;
56102;SDS011;41970;48.774;9.280;2024-03-02T11:59:41;1.63;;;1.27;;
56102;SDS011;41970;48.774;9.280;2024-03-02T12:02:12;1.57;;;1.20;;
56102;SDS011;41970;48.774;9.280;2024-03-02T12:04:41;4.13;;;1.57;;
56102;SDS011;41970;48.774;9.280;2024-03-02T12:07:08;1.50;;;1.30;;
56102;SDS011;41970;48.774;9.280;2024-03-02T12:09:34;1.67;;;1.00;;
56102;SDS011;41970;48.774;9.280;2024-03-02T12:12:04;1.57;;;1.40;;
56102;SDS011;41970;48.774;9.280;2024-03-02T12:14:35;1.63;;;1.50;;
56102;SDS011;41970;48.774;9.280;2024-03-02T12:17:02;2.73;;;1.50;;
56102;SDS011;41970;48.774;9.280;2024-03-02T12:19:28;2.17;;;1.40;;
56102;SDS011;41970;48.774;9.280;2024-03-02T12:21:58;1.83;;;1.17;;
56102;SDS011;41970;48.774;9.280;2024-03-02T12:24:26;2.33;;;1.20;;
56102;SDS011;41970;48.774;9.280;2024-03-02T12:26:53;1.40;;;1.20;;
56102;SDS011;41970;48.774;9.280;2024-03-02T12:29:20;2.07;;;1.27;;
56102;SDS011;41970;48.774;9.280;2024-03-02T12:31:49;1.50;;;0.90;;
56102;SDS011;41970;48.774;9.280;2024-03-02T12:34:17;1.83;;;0.97;;
56102;SDS011;41970;48.774;9.280;2024-03-02T12:36:44;1.53;;;1.00;;
56102;SDS011;41970;48.774;9.280;2024-03-02T12:39:17;1.97;;;1.17;;
56102;SDS011;41970;48.774;9.280;2024-03-02T12:41:48;1.30;;;1.00;;
56102;SDS011;41970;48.774;9.280;2024-03-02T12:44:19;1.30;;;1.00;;
56102;SDS011;41970;48.774;9.280;2024-03-02T12:46:45;1.70;;;1.10;;
56102;SDS011;41970;48.774;9.280;2024-03-02T12:49:12;1.50;;;1.20;;
56102;SDS011;41970;48.774;9.280;2024-03-02T12:51:39;10.73;;;3.53;;
56102;SDS011;41970;48.774;9.280;2024-03-02T12:54:09;3.43;;;1.00;;
56102;SDS011;41970;48.774;9.280;2024-03-02T12:56:36;1.10;;;0.93;;
56102;SDS011;41970;48.774;9.280;2024-03-02T12:59:02;1.20;;;0.90;;
56102;SDS011;41970;48.774;9.280;2024-03-02T13:01:31;1.50;;;1.10;;
56102;SDS011;41970;48.774;9.280;2024-03-02T13:03:57;1.33;;;0.80;;
56102;SDS011;41970;48.774;9.280;2024-03-02T13:06:24;2.40;;;0.90;;
56102;SDS011;41970;48.774;9.280;2024-03-02T13:08:53;1.67;;;1.13;;
56102;SDS011;41970;48.774;9.280;2024-03-02T13:11:19;1.33;;;1.13;;
56102;SDS011;41970;48.774;9.280;2024-03-02T13:13:47;1.70;;;1.20;;
56102;SDS011;41970;48.774;9.280;2024-03-02T13:19:07;1.50;;;1.30;;
56102;SDS011;41970;48.774;9.280;2024-03-02T13:21:39;1.10;;;0.90;;
56102;SDS011;41970;48.774;9.280;2024-03-02T13:24:05;4.30;;;1.57;;
56102;SDS011;41970;48.774;9.280;2024-03-02T13:26:31;1.83;;;1.43;;
56102;SDS011;41970;48.774;9.280;2024-03-02T13:28:57;1.63;;;1.07;;
56102;SDS011;41970;48.774;9.280;2024-03-02T13:31:23;1.37;;;1.03;;
56102;SDS011;41970;48.774;9.280;2024-03-02T13:33:48;1.67;;;1.33;;
56102;SDS011;41970;48.774;9.280;2024-03-02T13:36:14;3.30;;;1.37;;
56102;SDS011;41970;48.774;9.280;2024-03-02T13:38:40;1.60;;;1.27;;
56102;SDS011;41970;48.774;9.280;2024-03-02T13:41:05;4.50;;;1.30;;
56102;SDS011;41970;48.774;9.280;2024-03-02T13:43:31;1.53;;;1.43;;
56102;SDS011;41970;48.774;9.280;2024-03-02T13:45:58;1.57;;;1.20;;
56102;SDS011;41970;48.774;9.280;2024-03-02T13:48:24;2.10;;;1.70;;
56102;SDS011;41970;48.774;9.280;2024-03-02T13:50:56;1.53;;;1.20;;
56102;SDS011;41970;48.774;9.280;2024-03-02T13:53:22;4.07;;;2.13;;
56102;SDS011;41970;48.774;9.280;2024-03-02T13:55:48;1.83;;;1.37;;
56102;SDS011;41970;48.774;9.280;2024-03-02T13:58:14;1.73;;;1.33;;
56102;SDS011;41970;48.774;9.280;2024-03-02T14:00:40;1.73;;;1.20;;
56102;SDS011;41970;48.774;9.280;2024-03-02T14:03:06;2.43;;;1.20;;
56102;SDS011;41970;48.774;9.280;2024-03-02T14:05:32;1.60;;;1.20;;
56102;SDS011;41970;48.774;9.280;2024-03-02T14:07:58;1.30;;;1.00;;
56102;SDS011;41970;48.774;9.280;2024-03-02T14:10:25;1.47;;;1.30;;
56102;SDS011;41970;48.774;9.280;2024-03-02T14:12:52;1.50;;;1.40;;
56102;SDS011;41970;48.774;9.280;2024-03-02T14:15:20;2.73;;;1.43;;
56102;SDS011;41970;48.774;9.280;2024-03-02T14:18:08;1.77;;;1.67;;
56102;SDS011;41970;48.774;9.280;2024-03-02T14:20:36;1.27;;;1.10;;
56102;SDS011;41970;48.774;9.280;2024-03-02T14:23:02;2.17;;;1.30;;
56102;SDS011;41970;48.774;9.280;2024-03-02T14:25:29;1.70;;;1.10;;
56102;SDS011;41970;48.774;9.280;2024-03-02T14:27:59;1.80;;;1.30;;
56102;SDS011;41970;48.774;9.280;2024-03-02T14:30:25;2.77;;;1.50;;
56102;SDS011;41970;48.774;9.280;2024-03-02T14:32:51;1.40;;;1.20;;
56102;SDS011;41970;48.774;9.280;2024-03-02T14:35:16;2.87;;;1.40;;
56102;SDS011;41970;48.774;9.280;2024-03-02T14:37:42;3.40;;;1.43;;
56102;SDS011;41970;48.774;9.280;2024-03-02T14:40:08;3.77;;;1.20;;
56102;SDS011;41970;48.774;9.280;2024-03-02T14:42:35;1.77;;;1.10;;